createdAt,value
2022-11-04T00:01:22.169Z,1.90
2022-11-04T00:03:49.036Z,2.00
2022-11-04T00:06:16.356Z,2.47
2022-11-04T00:08:48.875Z,2.80
2022-11-04T00:11:34.372Z,2.00
2022-11-04T00:14:01.546Z,1.93
2022-11-04T00:16:47.178Z,2.60
2022-11-04T00:19:14.160Z,2.83
2022-11-04T00:21:59.864Z,3.47
2022-11-04T00:24:43.018Z,2.47
2022-11-04T00:27:29.397Z,2.50
2022-11-04T00:29:56.664Z,2.67
2022-11-04T00:32:42.398Z,2.20
2022-11-04T00:35:10.209Z,1.37
2022-11-04T00:37:37.712Z,1.47
2022-11-04T00:40:08.119Z,1.30
2022-11-04T00:42:35.218Z,1.20
2022-11-04T00:45:02.210Z,1.70
2022-11-04T00:47:29.132Z,1.67
2022-11-04T00:49:56.461Z,1.57
2022-11-04T00:52:23.468Z,1.20
2022-11-04T00:54:50.481Z,1.53
2022-11-04T00:57:18.744Z,0.93
2022-11-04T00:59:45.806Z,2.27
2022-11-04T01:02:13.688Z,1.60
2022-11-04T01:04:40.762Z,2.60
2022-11-04T01:07:07.831Z,1.40
2022-11-04T01:09:34.937Z,2.20
2022-11-04T01:12:01.896Z,1.77
2022-11-04T01:14:30.228Z,1.03
2022-11-04T01:16:57.148Z,1.33
2022-11-04T01:19:24.023Z,1.90
2022-11-04T01:21:52.435Z,1.43
2022-11-04T01:24:19.636Z,1.67
2022-11-04T01:26:46.702Z,1.30
2022-11-04T01:29:13.576Z,1.27
2022-11-04T01:31:41.997Z,1.23
2022-11-04T01:34:09.429Z,1.30
2022-11-04T01:36:36.293Z,1.47
2022-11-04T01:39:03.704Z,1.30
2022-11-04T01:41:33.501Z,1.13
2022-11-04T01:44:02.690Z,1.10
2022-11-04T01:46:37.782Z,1.00
2022-11-04T01:49:16.667Z,2.30
2022-11-04T01:51:45.204Z,2.10
2022-11-04T01:54:12.442Z,1.57
2022-11-04T01:56:41.667Z,0.90
2022-11-04T01:59:14.709Z,1.93
2022-11-04T02:01:42.798Z,1.47
2022-11-04T02:04:27.248Z,1.03
2022-11-04T02:06:56.712Z,0.90
2022-11-04T02:09:25.250Z,1.67
2022-11-04T02:12:10.795Z,1.37
2022-11-04T02:14:38.229Z,1.43
2022-11-04T02:17:15.760Z,0.93
2022-11-04T02:20:17.325Z,1.97
2022-11-04T02:23:25.993Z,1.00
2022-11-04T02:26:28.700Z,0.87
2022-11-04T02:29:20.405Z,1.23
2022-11-04T02:31:53.821Z,1.03
2022-11-04T02:34:32.811Z,1.30
2022-11-04T02:37:08.990Z,2.27
2022-11-04T02:39:44.286Z,1.67
2022-11-04T02:42:15.802Z,1.30
2022-11-04T02:44:49.650Z,1.90
2022-11-04T02:47:21.723Z,1.10
2022-11-04T02:49:54.946Z,0.80
2022-11-04T02:52:27.847Z,1.03
2022-11-04T02:55:02.098Z,0.87
2022-11-04T02:57:32.162Z,0.60
2022-11-04T03:00:04.368Z,0.80
2022-11-04T03:02:35.650Z,1.37
2022-11-04T03:05:05.777Z,1.07
2022-11-04T03:07:37.419Z,0.60
2022-11-04T03:10:08.504Z,1.43
2022-11-04T03:12:40.159Z,1.30
2022-11-04T03:15:15.182Z,1.20
2022-11-04T03:17:48.218Z,0.73
2022-11-04T03:20:18.833Z,1.10
2022-11-04T03:22:45.784Z,1.83
2022-11-04T03:25:12.895Z,0.87
2022-11-04T03:27:47.659Z,2.30
2022-11-04T03:30:19.345Z,1.43
2022-11-04T03:32:57.392Z,1.90
2022-11-04T03:35:25.380Z,0.73
2022-11-04T03:37:52.627Z,1.13
2022-11-04T03:40:21.157Z,1.07
2022-11-04T03:42:53.372Z,1.07
2022-11-04T03:45:21.615Z,0.53
2022-11-04T03:47:48.493Z,2.00
2022-11-04T03:50:23.331Z,1.00
2022-11-04T03:52:50.362Z,1.57
2022-11-04T03:55:17.506Z,1.43
2022-11-04T03:57:52.044Z,0.80
2022-11-04T04:00:22.388Z,1.33
2022-11-04T04:02:59.730Z,1.77
2022-11-04T04:05:29.809Z,1.57
2022-11-04T04:08:08.968Z,1.03
2022-11-04T04:10:41.857Z,0.93
2022-11-04T04:13:23.771Z,1.53
2022-11-04T04:15:55.987Z,1.37
2022-11-04T04:18:30.442Z,1.97
2022-11-04T04:21:02.027Z,1.80
2022-11-04T04:23:50.320Z,1.10
2022-11-04T04:26:38.874Z,1.77
2022-11-04T04:29:07.631Z,0.70
2022-11-04T04:31:50.979Z,0.90
2022-11-04T04:34:19.772Z,2.20
2022-11-04T04:36:52.454Z,1.17
2022-11-04T04:39:45.522Z,1.20
2022-11-04T04:42:31.082Z,0.60
2022-11-04T04:45:04.047Z,0.90
2022-11-04T04:47:39.133Z,0.83
2022-11-04T04:50:07.500Z,0.60
2022-11-04T04:52:38.738Z,0.73
2022-11-04T04:55:06.605Z,2.77
2022-11-04T04:57:33.510Z,1.70
2022-11-04T05:00:00.379Z,2.27
2022-11-04T05:02:27.290Z,2.60
2022-11-04T05:04:56.337Z,2.07
2022-11-04T05:07:23.406Z,2.80
2022-11-04T05:09:50.365Z,1.70
2022-11-04T05:12:17.395Z,2.73
2022-11-04T05:14:44.290Z,1.67
2022-11-04T05:17:11.379Z,1.57
2022-11-04T05:19:38.305Z,3.27
2022-11-04T05:22:06.526Z,2.43
2022-11-04T05:24:33.456Z,1.13
2022-11-04T05:27:00.372Z,1.00
2022-11-04T05:29:27.245Z,1.90
2022-11-04T05:31:54.080Z,1.77
2022-11-04T05:34:21.057Z,2.73
2022-11-04T05:36:47.953Z,1.03
2022-11-04T05:39:16.535Z,3.03
2022-11-04T05:41:43.545Z,1.70
2022-11-04T05:44:11.133Z,1.77
2022-11-04T05:46:38.006Z,8.63
2022-11-04T05:49:05.110Z,7.90
2022-11-04T05:51:32.766Z,3.87
2022-11-04T05:54:00.359Z,1.93
2022-11-04T05:56:28.654Z,3.17
2022-11-04T05:58:55.701Z,1.10
2022-11-04T06:01:31.647Z,2.40
2022-11-04T06:04:00.297Z,1.87
2022-11-04T06:06:30.100Z,1.47
2022-11-04T06:08:57.703Z,2.00
2022-11-04T06:11:26.351Z,2.97
2022-11-04T06:13:55.998Z,1.70
2022-11-04T06:16:23.694Z,1.60
2022-11-04T06:18:51.018Z,2.87
2022-11-04T06:21:25.375Z,2.80
2022-11-04T06:23:53.370Z,2.97
2022-11-04T06:26:23.858Z,2.07
2022-11-04T06:28:55.624Z,2.63
2022-11-04T06:31:22.985Z,2.27
2022-11-04T06:33:49.877Z,2.03
2022-11-04T06:36:17.223Z,1.73
2022-11-04T06:38:44.082Z,2.27
2022-11-04T06:41:13.653Z,2.20
2022-11-04T06:43:40.625Z,2.37
2022-11-04T06:46:24.679Z,1.67
2022-11-04T06:48:51.538Z,1.70
2022-11-04T06:51:18.779Z,2.13
2022-11-04T06:53:45.661Z,1.80
2022-11-04T06:56:12.552Z,2.43
2022-11-04T06:58:39.466Z,2.37
2022-11-04T07:01:14.692Z,2.83
2022-11-04T07:03:44.484Z,3.47
2022-11-04T07:06:11.653Z,4.17
2022-11-04T07:08:38.549Z,2.70
2022-11-04T07:11:05.801Z,4.40
2022-11-04T07:13:32.742Z,4.77
2022-11-04T07:15:59.938Z,3.03
2022-11-04T07:18:28.117Z,3.83
2022-11-04T07:20:55.029Z,3.43
2022-11-04T07:23:22.010Z,2.20
2022-11-04T07:25:48.958Z,1.73
2022-11-04T07:28:15.887Z,2.27
2022-11-04T07:30:42.866Z,2.07
2022-11-04T07:33:09.827Z,2.40
2022-11-04T07:35:38.844Z,1.30
2022-11-04T07:38:06.596Z,1.43
2022-11-04T07:40:34.429Z,2.30
2022-11-04T07:43:01.459Z,0.77
2022-11-04T07:45:36.714Z,1.87
2022-11-04T07:48:04.065Z,2.47
2022-11-04T07:50:31.040Z,1.83
2022-11-04T07:52:59.419Z,2.30
2022-11-04T07:55:26.408Z,2.27
2022-11-04T07:57:55.015Z,1.03
2022-11-04T08:00:21.994Z,3.40
2022-11-04T08:02:49.080Z,2.63
2022-11-04T08:05:16.269Z,1.70
2022-11-04T08:07:43.751Z,1.30
2022-11-04T08:10:12.027Z,4.70
2022-11-04T08:12:38.861Z,1.27
2022-11-04T08:15:07.034Z,1.03
2022-11-04T08:17:33.866Z,1.37
2022-11-04T08:20:00.747Z,3.07
2022-11-04T08:22:32.863Z,1.60
2022-11-04T08:25:00.108Z,2.17
2022-11-04T08:27:28.370Z,1.77
2022-11-04T08:29:55.413Z,1.90
2022-11-04T08:32:22.489Z,1.17
2022-11-04T08:34:49.492Z,2.27
2022-11-04T08:37:16.920Z,1.67
2022-11-04T08:39:44.366Z,1.80
2022-11-04T08:42:11.253Z,3.53
2022-11-04T08:44:39.939Z,0.80
2022-11-04T08:47:07.010Z,1.10
2022-11-04T08:49:38.538Z,1.90
2022-11-04T08:52:06.075Z,2.90
2022-11-04T08:54:32.964Z,2.03
2022-11-04T08:56:59.877Z,2.00
2022-11-04T08:59:26.858Z,2.97
2022-11-04T09:01:55.190Z,1.23
2022-11-04T09:04:22.235Z,2.43
2022-11-04T09:06:50.899Z,2.20
2022-11-04T09:09:19.893Z,1.33
2022-11-04T09:11:46.903Z,1.37
2022-11-04T09:14:14.182Z,3.53
2022-11-04T09:16:41.861Z,2.07
2022-11-04T09:19:10.420Z,1.13
2022-11-04T09:21:37.574Z,2.17
2022-11-04T09:24:06.032Z,1.30
2022-11-04T09:26:33.022Z,1.67
2022-11-04T09:29:00.555Z,1.70
2022-11-04T09:31:29.676Z,1.00
2022-11-04T09:33:57.113Z,1.20
2022-11-04T09:36:25.858Z,1.07
2022-11-04T09:38:53.975Z,1.10
2022-11-04T09:42:06.349Z,2.50
2022-11-04T09:45:07.355Z,2.93
2022-11-04T09:47:33.564Z,2.20
2022-11-04T09:50:01.940Z,2.03
2022-11-04T09:52:34.863Z,2.83
2022-11-04T09:55:06.777Z,2.17
2022-11-04T09:57:33.733Z,1.33
2022-11-04T10:00:01.057Z,3.53
2022-11-04T10:02:49.322Z,3.27
2022-11-04T10:05:30.934Z,2.10
2022-11-04T10:08:16.834Z,1.40
2022-11-04T10:10:53.348Z,2.93
2022-11-04T10:13:31.098Z,2.50
2022-11-04T10:16:18.866Z,2.27
2022-11-04T10:19:00.004Z,2.70
2022-11-04T10:21:39.888Z,2.80
2022-11-04T10:24:18.676Z,3.13
2022-11-04T10:26:47.757Z,3.03
2022-11-04T10:29:16.864Z,2.03
2022-11-04T10:31:46.144Z,2.87
2022-11-04T10:34:23.142Z,2.17
2022-11-04T10:36:50.150Z,2.50
2022-11-04T10:39:25.931Z,2.50
2022-11-04T10:41:52.916Z,2.30
2022-11-04T10:44:23.671Z,2.63
2022-11-04T10:46:59.287Z,2.43
2022-11-04T10:50:26.440Z,1.30
2022-11-04T10:52:42.561Z,2.27
2022-11-04T10:55:26.534Z,3.60
2022-11-04T10:57:56.127Z,2.87
2022-11-04T11:00:37.612Z,3.57
2022-11-04T11:03:23.872Z,2.80
2022-11-04T11:05:52.248Z,3.00
2022-11-04T11:08:30.617Z,3.73
2022-11-04T11:10:59.381Z,2.90
2022-11-04T11:13:28.325Z,3.17
2022-11-04T11:16:17.204Z,3.90
2022-11-04T11:18:44.161Z,2.77
2022-11-04T11:21:13.858Z,3.23
2022-11-04T11:23:44.340Z,2.07
2022-11-04T11:26:16.395Z,2.20
2022-11-04T11:28:53.125Z,1.97
2022-11-04T11:31:26.389Z,3.10
2022-11-04T11:33:55.754Z,3.60
2022-11-04T11:36:24.642Z,2.80
2022-11-04T11:38:55.842Z,1.37
2022-11-04T11:41:31.366Z,1.77
2022-11-04T11:44:02.077Z,4.43
2022-11-04T11:46:30.963Z,3.47
2022-11-04T11:49:02.548Z,4.00
2022-11-04T11:51:32.693Z,5.87
2022-11-04T11:54:24.172Z,2.37
2022-11-04T12:02:45.984Z,5.20
2022-11-04T12:11:06.989Z,3.47
2022-11-04T12:13:41.964Z,4.47
2022-11-04T12:16:25.774Z,2.90
2022-11-04T12:19:10.868Z,2.77
2022-11-04T12:21:43.597Z,2.87
2022-11-04T12:24:22.044Z,3.43
2022-11-04T12:26:56.926Z,4.30
2022-11-04T12:29:40.985Z,3.13
2022-11-04T12:32:18.509Z,2.90
2022-11-04T12:35:00.037Z,3.50
2022-11-04T12:37:35.594Z,3.17
2022-11-04T12:40:25.447Z,4.40
2022-11-04T12:43:08.502Z,5.13
2022-11-04T12:45:52.689Z,3.80
2022-11-04T12:48:34.905Z,2.43
2022-11-04T12:51:11.177Z,3.17
2022-11-04T12:53:51.569Z,4.93
2022-11-04T12:56:20.599Z,1.97
2022-11-04T12:59:21.867Z,5.07
2022-11-04T13:01:54.585Z,3.87
2022-11-04T13:04:24.701Z,3.37
2022-11-04T13:06:54.941Z,2.57
2022-11-04T13:09:29.288Z,3.30
2022-11-04T13:12:03.800Z,3.47
2022-11-04T13:14:37.904Z,3.73
2022-11-04T13:17:10.714Z,4.47
2022-11-04T13:19:43.544Z,5.10
2022-11-04T13:22:14.261Z,3.80
2022-11-04T13:24:48.783Z,3.53
2022-11-04T13:27:20.362Z,3.43
2022-11-04T13:29:50.906Z,3.30
2022-11-04T13:32:26.337Z,2.67
2022-11-04T13:34:59.270Z,3.30
2022-11-04T13:37:31.085Z,2.67
2022-11-04T13:40:02.255Z,4.27
2022-11-04T13:43:30.270Z,2.30
2022-11-04T13:45:57.658Z,3.13
2022-11-04T13:48:29.423Z,2.03
2022-11-04T13:51:00.110Z,2.90
2022-11-04T13:53:45.447Z,1.80
2022-11-04T13:56:33.443Z,3.60
2022-11-04T13:59:07.739Z,0.80
2022-11-04T14:01:37.893Z,1.67
2022-11-04T14:04:28.698Z,1.77
2022-11-04T14:06:59.091Z,4.77
2022-11-04T14:09:56.510Z,2.57
2022-11-04T14:12:33.031Z,3.83
2022-11-04T14:15:10.585Z,1.10
2022-11-04T14:18:02.788Z,1.70
2022-11-04T14:20:33.776Z,3.03
2022-11-04T14:23:02.512Z,2.63
2022-11-04T14:25:32.755Z,2.47
2022-11-04T14:28:01.881Z,1.53
2022-11-04T14:30:51.331Z,2.40
2022-11-04T14:33:33.445Z,2.37
2022-11-04T14:36:41.956Z,2.57
2022-11-04T14:39:24.130Z,3.03
2022-11-04T14:42:00.349Z,1.30
2022-11-04T14:44:32.360Z,1.57
2022-11-04T14:47:06.272Z,1.73
2022-11-04T14:49:39.920Z,3.10
2022-11-04T14:52:16.266Z,2.03
2022-11-04T14:54:44.705Z,2.13
2022-11-04T14:57:15.660Z,1.50
2022-11-04T14:59:42.740Z,0.97
2022-11-04T15:02:16.625Z,1.23
2022-11-04T15:04:57.452Z,1.90
2022-11-04T15:07:34.066Z,1.53
2022-11-04T15:10:05.267Z,1.20
2022-11-04T15:12:50.564Z,1.60
2022-11-04T15:15:30.117Z,2.13
2022-11-04T15:18:00.555Z,2.30
2022-11-04T15:20:33.097Z,2.27
2022-11-04T15:23:03.105Z,2.93
2022-11-04T15:25:32.791Z,3.87
2022-11-04T15:28:00.266Z,3.90
2022-11-04T15:30:29.629Z,3.13
2022-11-04T15:32:59.875Z,2.13
2022-11-04T15:35:28.826Z,2.50
2022-11-04T15:37:56.824Z,3.23
2022-11-04T15:40:26.556Z,2.70
2022-11-04T15:42:55.985Z,1.07
2022-11-04T15:45:52.619Z,3.60
2022-11-04T15:48:30.506Z,1.83
2022-11-04T15:51:14.479Z,2.87
2022-11-04T15:53:51.061Z,1.83
2022-11-04T15:56:22.106Z,1.80
2022-11-04T15:58:52.275Z,1.47
2022-11-04T16:01:20.788Z,3.13
2022-11-04T16:03:50.703Z,2.57
2022-11-04T16:06:17.950Z,2.13
2022-11-04T16:09:01.004Z,2.53
2022-11-04T16:11:28.085Z,3.33
2022-11-04T16:14:15.269Z,4.97
2022-11-04T16:16:47.400Z,5.73
2022-11-04T16:19:23.127Z,6.10
2022-11-04T16:21:59.625Z,5.27
2022-11-04T16:24:29.683Z,6.53
2022-11-04T16:26:57.287Z,4.47
2022-11-04T16:29:28.410Z,4.83
2022-11-04T16:32:08.147Z,4.63
2022-11-04T16:34:35.580Z,4.93
2022-11-04T16:37:02.992Z,3.60
2022-11-04T16:39:29.967Z,3.83
2022-11-04T16:41:57.448Z,2.93
2022-11-04T16:44:26.461Z,4.43
2022-11-04T16:46:54.487Z,3.80
2022-11-04T16:49:22.418Z,3.33
2022-11-04T16:51:53.143Z,2.67
2022-11-04T16:54:20.127Z,2.20
2022-11-04T16:56:47.255Z,4.93
2022-11-04T16:59:14.557Z,4.33
2022-11-04T17:01:42.981Z,4.83
2022-11-04T17:04:10.003Z,2.57
2022-11-04T17:06:37.014Z,5.17
2022-11-04T17:09:04.671Z,5.20
2022-11-04T17:11:31.622Z,5.63
2022-11-04T17:13:58.580Z,4.93
2022-11-04T17:16:25.675Z,5.27
2022-11-04T17:18:54.081Z,4.40
2022-11-04T17:21:21.617Z,4.27
2022-11-04T17:23:48.889Z,4.67
2022-11-04T17:26:16.213Z,3.70
2022-11-04T17:28:43.225Z,4.23
2022-11-04T17:31:15.991Z,5.70
2022-11-04T17:33:42.911Z,5.50
2022-11-04T17:36:16.869Z,6.13
2022-11-04T17:38:43.822Z,7.90
2022-11-04T17:41:29.422Z,8.00
2022-11-04T17:44:02.341Z,7.67
2022-11-04T17:46:38.117Z,6.57
2022-11-04T17:49:10.058Z,5.83
2022-11-04T17:51:39.414Z,5.17
2022-11-04T17:54:06.651Z,8.20
2022-11-04T17:56:33.617Z,7.33
2022-11-04T17:59:01.470Z,8.40
2022-11-04T18:01:28.992Z,5.77
2022-11-04T18:03:56.267Z,7.17
2022-11-04T18:06:24.725Z,8.73
2022-11-04T18:08:54.871Z,10.00
2022-11-04T18:11:41.480Z,5.30
2022-11-04T18:14:13.748Z,4.47
2022-11-04T18:16:44.721Z,4.17
2022-11-04T18:19:12.014Z,3.97
2022-11-04T18:21:38.994Z,3.30
2022-11-04T18:24:07.870Z,5.67
2022-11-04T18:26:34.915Z,6.30
2022-11-04T18:29:02.056Z,34.30
2022-11-04T18:31:31.111Z,37.50
2022-11-04T18:33:59.302Z,32.93
2022-11-04T18:36:26.185Z,19.80
2022-11-04T18:38:53.036Z,13.00
2022-11-04T18:41:21.420Z,14.43
2022-11-04T18:43:48.401Z,13.70
2022-11-04T18:46:16.916Z,10.37
2022-11-04T18:48:47.669Z,10.50
2022-11-04T18:51:14.625Z,7.57
2022-11-04T18:53:41.453Z,6.87
2022-11-04T18:56:10.205Z,9.37
2022-11-04T18:58:39.958Z,4.63
2022-11-04T19:01:08.901Z,3.87
2022-11-04T19:03:36.102Z,4.07
2022-11-04T19:06:07.593Z,4.50
2022-11-04T19:08:35.222Z,5.20
2022-11-04T19:11:08.693Z,5.90
2022-11-04T19:13:35.514Z,5.07
2022-11-04T19:16:06.440Z,4.30
2022-11-04T19:18:33.496Z,4.77
2022-11-04T19:21:04.862Z,4.87
2022-11-04T19:23:32.087Z,3.70
2022-11-04T19:26:02.198Z,4.60
2022-11-04T19:28:44.530Z,4.70
2022-11-04T19:31:17.047Z,4.03
2022-11-04T19:33:44.350Z,5.33
2022-11-04T19:36:13.690Z,6.17
2022-11-04T19:38:40.759Z,4.70
2022-11-04T19:41:31.404Z,6.13
2022-11-04T19:43:58.654Z,3.50
2022-11-04T19:46:27.037Z,2.73
2022-11-04T19:48:55.690Z,3.67
2022-11-04T19:51:25.553Z,4.07
2022-11-04T19:53:56.700Z,3.30
2022-11-04T19:56:24.028Z,4.03
2022-11-04T19:58:51.170Z,3.43
2022-11-04T20:01:18.884Z,4.40
2022-11-04T20:03:47.572Z,4.63
2022-11-04T20:06:16.010Z,3.57
2022-11-04T20:08:44.823Z,3.07
2022-11-04T20:11:13.482Z,4.23
2022-11-04T20:13:47.299Z,3.77
2022-11-04T20:16:18.240Z,2.97
2022-11-04T20:18:48.244Z,4.23
2022-11-04T20:21:15.692Z,3.83
2022-11-04T20:23:42.852Z,5.93
2022-11-04T20:26:16.207Z,5.33
2022-11-04T20:28:46.502Z,5.53
2022-11-04T20:31:17.915Z,9.23
2022-11-04T20:33:45.781Z,7.43
2022-11-04T20:36:15.412Z,7.33
2022-11-04T20:38:42.360Z,7.27
2022-11-04T20:41:10.582Z,7.33
2022-11-04T20:43:38.127Z,7.13
2022-11-04T20:46:07.329Z,5.33
2022-11-04T20:48:35.995Z,5.13
2022-11-04T20:51:07.772Z,7.97
2022-11-04T20:53:36.261Z,5.93
2022-11-04T20:56:06.530Z,8.47
2022-11-04T20:58:33.909Z,5.97
2022-11-04T21:01:02.211Z,5.50
2022-11-04T21:03:29.415Z,5.63
2022-11-04T21:05:56.529Z,4.97
2022-11-04T21:08:23.495Z,4.90
2022-11-04T21:10:52.036Z,4.70
2022-11-04T21:13:19.174Z,6.53
2022-11-04T21:15:50.635Z,5.43
2022-11-04T21:18:17.619Z,6.20
2022-11-04T21:20:44.955Z,5.03
2022-11-04T21:23:13.521Z,5.03
2022-11-04T21:25:41.509Z,5.50
2022-11-04T21:28:10.271Z,5.53
2022-11-04T21:30:38.872Z,7.47
2022-11-04T21:33:06.434Z,5.20
2022-11-04T21:35:34.935Z,5.40
2022-11-04T21:38:02.106Z,7.03
2022-11-04T21:40:29.778Z,6.67
2022-11-04T21:42:57.906Z,5.73
2022-11-04T21:45:26.509Z,6.07
2022-11-04T21:47:53.696Z,6.27
2022-11-04T21:50:20.782Z,5.67
2022-11-04T21:52:47.666Z,4.90
2022-11-04T21:55:14.453Z,6.83
2022-11-04T21:57:41.390Z,5.57
2022-11-04T22:00:10.399Z,5.80
2022-11-04T22:02:43.527Z,6.03
2022-11-04T22:05:11.808Z,5.10
2022-11-04T22:07:57.457Z,6.53
2022-11-04T22:10:25.798Z,5.87
2022-11-04T22:12:52.931Z,6.10
2022-11-04T22:15:38.371Z,6.13
2022-11-04T22:18:07.209Z,6.27
2022-11-04T22:20:36.174Z,4.30
2022-11-04T22:23:03.751Z,4.83
2022-11-04T22:25:31.212Z,4.37
2022-11-04T22:27:58.176Z,3.57
2022-11-04T22:30:25.360Z,3.57
2022-11-04T22:32:52.349Z,4.53
2022-11-04T22:35:20.883Z,3.00
2022-11-04T22:37:47.835Z,4.60
2022-11-04T22:40:14.858Z,3.20
2022-11-04T22:42:43.634Z,4.13
2022-11-04T22:45:16.390Z,3.37
2022-11-04T22:47:43.745Z,3.90
2022-11-04T22:50:10.656Z,4.27
2022-11-04T22:52:38.960Z,3.20
2022-11-04T22:55:06.579Z,4.40
2022-11-04T22:57:33.485Z,5.23
2022-11-04T23:00:01.442Z,4.40
2022-11-04T23:02:32.504Z,5.13
2022-11-04T23:05:03.774Z,4.97
2022-11-04T23:07:30.820Z,4.50
2022-11-04T23:10:17.640Z,5.30
2022-11-04T23:13:03.231Z,4.40
2022-11-04T23:15:48.742Z,4.53
2022-11-04T23:18:34.518Z,4.87
2022-11-04T23:21:19.884Z,5.73
2022-11-04T23:24:05.169Z,4.27
2022-11-04T23:26:33.484Z,6.00
2022-11-04T23:29:18.785Z,4.60
2022-11-04T23:31:45.633Z,4.57
2022-11-04T23:34:30.905Z,4.67
2022-11-04T23:37:12.973Z,3.97
2022-11-04T23:39:41.103Z,3.63
2022-11-04T23:42:16.143Z,2.87
2022-11-04T23:45:03.177Z,3.83
2022-11-04T23:47:49.174Z,2.30
2022-11-04T23:50:34.954Z,4.17
2022-11-04T23:53:21.462Z,3.03
2022-11-04T23:56:07.691Z,2.83
2022-11-04T23:58:54.546Z,2.57
